Time;durP1;ratioP1;P1;durP2;ratioP2;P2;SDS_P1;SDS_P2;PMS_P1;PMS_P2;Temp;Humidity;BMP_temperature;BMP_pressure;BME280_temperature;BME280_humidity;BME280_pressure;Samples;Min_cycle;Max_cycle;Signal;HPM_P1;HPM_P2
2021/12/14 00:01:10;;;;;;;12.60;6.68;;;;;;;7.89;90.74;102785.56;4972865;28;101216;-35
2021/12/14 00:03:40;;;;;;;17.77;6.47;;;;;;;7.93;90.77;102803.47;4972915;28;100781;-34
2021/12/14 00:06:07;;;;;;;12.55;5.43;;;;;;;7.90;90.73;102798.13;4972560;28;96749;-34
2021/12/14 00:08:46;;;;;;;22.50;7.93;;;;;;;7.96;90.65;102808.81;4972921;28;96824;-34
2021/12/14 00:11:28;;;;;;;15.75;7.32;;;;;;;7.90;90.95;102799.94;4970372;28;101715;-35
2021/12/14 00:14:11;;;;;;;19.00;7.72;;;;;;;7.90;90.67;102808.94;4974593;28;97973;-34
2021/12/14 00:16:37;;;;;;;15.40;6.70;;;;;;;7.93;90.76;102825.06;4972820;28;96745;-34
2021/12/14 00:19:03;;;;;;;16.73;7.57;;;;;;;7.93;90.80;102819.66;4974294;28;96879;-35
2021/12/14 00:21:30;;;;;;;16.90;7.35;;;;;;;7.90;90.62;102824.22;4972163;28;100826;-35
2021/12/14 00:24:07;;;;;;;21.98;7.78;;;;;;;7.95;90.75;102839.41;4972536;28;100783;-34
2021/12/14 00:26:55;;;;;;;16.10;7.00;;;;;;;7.96;90.60;102841.22;4972651;28;96606;-35
2021/12/14 00:29:25;;;;;;;20.45;7.93;;;;;;;7.92;90.58;102819.69;4972645;28;96738;-35
2021/12/14 00:31:51;;;;;;;14.57;6.85;;;;;;;7.91;90.73;102807.13;4972279;28;103024;-35
2021/12/14 00:34:23;;;;;;;19.23;6.65;;;;;;;7.93;90.79;102814.25;4972219;28;100867;-35
2021/12/14 00:36:50;;;;;;;13.88;7.40;;;;;;;7.95;90.74;102825.91;4973791;28;96588;-35
2021/12/14 00:39:16;;;;;;;12.75;7.10;;;;;;;7.85;90.77;102822.50;4972708;28;96792;-34
2021/12/14 00:41:42;;;;;;;15.80;7.68;;;;;;;7.92;90.97;102828.69;4971979;28;100797;-35
2021/12/14 00:44:09;;;;;;;14.10;7.43;;;;;;;7.87;90.81;102822.50;4971842;28;100516;-35
2021/12/14 00:46:36;;;;;;;11.35;5.88;;;;;;;7.91;90.84;102816.09;4972777;28;96636;-35
2021/12/14 00:49:05;;;;;;;17.60;7.40;;;;;;;7.86;91.01;102802.72;4972157;28;96826;-34
2021/12/14 00:51:31;;;;;;;12.40;6.55;;;;;;;7.88;90.80;102797.28;4973274;28;97419;-34
2021/12/14 00:53:59;;;;;;;16.50;7.22;;;;;;;7.87;91.03;102814.38;4971677;28;100753;-35
2021/12/14 00:56:24;;;;;;;22.35;8.23;;;;;;;7.90;91.25;102814.31;4971916;28;96624;-34
2021/12/14 00:58:55;;;;;;;23.73;10.40;;;;;;;7.86;91.21;102797.31;4972505;28;96789;-34
2021/12/14 01:01:25;;;;;;;17.23;8.82;;;;;;;7.84;90.99;102792.84;4973822;28;96726;-34
2021/12/14 01:03:55;;;;;;;12.63;6.75;;;;;;;7.86;91.26;102793.72;4972332;28;100997;-34
2021/12/14 01:06:24;;;;;;;17.75;8.75;;;;;;;7.84;90.99;102799.16;4971682;28;96762;-35
2021/12/14 01:08:50;;;;;;;20.80;9.82;;;;;;;7.80;91.13;102786.63;4971677;28;96738;-34
2021/12/14 01:11:21;;;;;;;14.60;7.95;;;;;;;7.81;91.19;102777.59;4971348;28;98806;-35
2021/12/14 01:13:55;;;;;;;20.52;9.45;;;;;;;7.88;91.14;102778.38;4971864;28;100194;-34
2021/12/14 01:16:48;;;;;;;17.52;7.90;;;;;;;7.88;90.96;102773.00;4971953;28;96636;-34
2021/12/14 01:19:19;;;;;;;13.77;7.47;;;;;;;7.87;91.17;102784.72;4973321;28;98445;-35
2021/12/14 01:27:20;;;;;;;14.57;6.18;;;;;;;7.82;91.22;102774.00;4973169;28;96470;-34
2021/12/14 01:29:48;;;;;;;20.42;9.50;;;;;;;7.84;91.11;102769.47;4972081;28;96723;-35
2021/12/14 01:32:17;;;;;;;13.98;7.03;;;;;;;7.84;91.28;102764.06;4971353;28;100732;-34
2021/12/14 01:34:42;;;;;;;19.85;9.38;;;;;;;7.83;91.06;102761.41;4971133;28;100533;-35
2021/12/14 01:37:14;;;;;;;17.10;8.90;;;;;;;7.79;91.43;102749.75;4972289;28;96614;-34
2021/12/14 01:42:26;;;;;;;14.45;7.47;;;;;;;7.82;91.50;102776.72;4972827;28;97466;-34
2021/12/14 01:45:09;;;;;;;16.60;7.63;;;;;;;7.80;91.45;102772.25;4971366;28;100741;-34
2021/12/14 01:47:55;;;;;;;16.20;7.13;;;;;;;7.77;91.55;102780.38;4971605;28;96490;-34
2021/12/14 01:50:31;;;;;;;17.08;7.13;;;;;;;7.80;91.52;102785.75;4972744;28;96600;-34
2021/12/14 01:52:58;;;;;;;14.73;8.27;;;;;;;7.80;91.42;102785.75;4972805;28;97564;-34
2021/12/14 01:55:28;;;;;;;20.65;9.35;;;;;;;7.76;91.38;102774.09;4971392;28;100647;-34
2021/12/14 01:57:55;;;;;;;23.02;9.57;;;;;;;7.79;91.46;102768.66;4971201;28;96538;-35
2021/12/14 02:00:27;;;;;;;20.30;8.18;;;;;;;7.75;91.61;102766.06;4972794;28;96735;-34
2021/12/14 02:02:53;;;;;;;;;;;;;;;7.79;91.47;102779.44;4970835;28;100915;-34
2021/12/14 02:05:27;;;;;;;16.25;7.97;;;;;;;7.77;91.45;102778.59;4972359;28;97399;-34
2021/12/14 02:07:54;;;;;;;23.40;10.20;;;;;;;7.73;91.49;102774.19;4971251;28;96741;-34
2021/12/14 02:10:37;;;;;;;19.55;8.38;;;;;;;7.72;91.41;102776.88;4972510;28;96817;-34
2021/12/14 02:13:05;;;;;;;20.90;10.50;;;;;;;7.77;91.41;102792.09;4970987;28;100904;-34
2021/12/14 02:15:43;;;;;;;26.98;9.80;;;;;;;7.76;91.08;102790.28;4970841;28;100914;-34
2021/12/14 02:18:14;;;;;;;22.42;9.48;;;;;;;7.73;91.34;102773.28;4970941;28;96640;-35
2021/12/14 02:21:04;;;;;;;15.63;8.85;;;;;;;7.73;91.59;102770.59;4971542;28;96746;-34
2021/12/14 02:23:31;;;;;;;13.85;6.78;;;;;;;7.72;91.76;102756.19;4970805;28;100726;-34
2021/12/14 02:26:06;;;;;;;13.43;7.38;;;;;;;7.62;91.66;102746.50;4970706;28;100987;-35
2021/12/14 02:28:32;;;;;;;16.38;6.78;;;;;;;7.68;91.54;102749.09;4970428;28;97646;-34
2021/12/14 02:31:00;;;;;;;21.40;7.03;;;;;;;7.64;91.51;102745.56;4972578;28;96431;-34
2021/12/14 02:33:32;;;;;;;27.13;9.75;;;;;;;7.67;91.56;102744.59;4970547;28;100879;-34
2021/12/14 02:35:58;;;;;;;;;;;;;;;7.69;91.55;102752.69;4972522;28;97895;-34
2021/12/14 02:38:25;;;;;;;9.45;5.28;;;;;;;7.68;91.59;102750.91;4971998;28;97164;-35
2021/12/14 02:40:57;;;;;;;18.63;8.27;;;;;;;7.64;91.62;102740.16;4970839;28;96822;-34
2021/12/14 02:43:54;;;;;;;20.75;9.82;;;;;;;7.70;91.33;102754.44;4970760;28;101305;-35
2021/12/14 02:46:19;;;;;;;14.68;7.90;;;;;;;7.66;91.28;102750.94;4972892;28;100598;-34
2021/12/14 02:48:58;;;;;;;22.00;7.35;;;;;;;7.61;91.37;102729.44;4971782;28;96556;-34
2021/12/14 02:51:32;;;;;;;15.18;7.05;;;;;;;7.61;91.31;102748.31;4970831;28;96668;-34
2021/12/14 02:54:04;;;;;;;16.88;7.55;;;;;;;7.61;91.30;102737.53;4969894;28;101572;-35
2021/12/14 02:56:31;;;;;;;;;;;;;;;7.65;91.35;102749.13;4970880;28;100998;-34
2021/12/14 02:59:07;;;;;;;10.27;5.40;;;;;;;7.62;91.35;102743.81;4972139;28;96614;-35
2021/12/14 03:01:34;;;;;;;16.83;5.70;;;;;;;7.56;91.21;102734.03;4970664;28;96642;-34
2021/12/14 03:04:06;;;;;;;13.77;6.28;;;;;;;7.57;91.33;102722.31;4970421;28;100815;-34
2021/12/14 03:06:36;;;;;;;13.20;6.07;;;;;;;7.55;91.32;102713.38;4969907;28;100759;-34
2021/12/14 03:09:15;;;;;;;11.65;5.90;;;;;;;7.58;91.33;102720.50;4972744;28;97086;-34
2021/12/14 03:11:41;;;;;;;9.82;5.07;;;;;;;7.63;91.25;102724.91;4975285;28;96606;-35
2021/12/14 03:14:08;;;;;;;13.10;6.93;;;;;;;7.61;91.18;102731.25;4973584;28;101149;-34
2021/12/14 03:16:36;;;;;;;13.40;6.30;;;;;;;7.56;90.96;102727.75;4973624;28;100532;-35
2021/12/14 03:19:06;;;;;;;15.35;6.05;;;;;;;7.56;91.19;102731.34;4973243;28;97010;-34
2021/12/14 03:21:36;;;;;;;16.77;7.70;;;;;;;7.58;91.05;102743.00;4974962;28;96900;-34
2021/12/14 03:24:11;;;;;;;21.25;7.72;;;;;;;7.53;91.25;102739.50;4973300;28;100885;-35
2021/12/14 03:26:40;;;;;;;12.48;5.57;;;;;;;7.57;91.31;102751.97;4973368;28;100775;-34
2021/12/14 03:29:09;;;;;;;9.13;5.10;;;;;;;7.52;91.18;102748.47;4973490;28;96712;-34
2021/12/14 03:31:38;;;;;;;15.05;6.47;;;;;;;7.58;91.20;102767.25;4973407;28;96816;-34
2021/12/14 03:34:09;;;;;;;16.38;5.75;;;;;;;7.52;91.16;102753.00;4973153;28;101040;-34
2021/12/14 03:36:44;;;;;;;15.38;6.45;;;;;;;7.47;91.22;102744.97;4973059;28;112392;-35
2021/12/14 03:39:17;;;;;;;13.43;6.15;;;;;;;7.53;91.25;102754.75;4974909;28;96560;-34
2021/12/14 03:42:02;;;;;;;10.25;5.10;;;;;;;7.56;91.13;102761.00;4974887;28;96630;-34
2021/12/14 03:44:34;;;;;;;10.88;5.57;;;;;;;7.48;91.43;102752.16;4972779;28;100892;-34
2021/12/14 03:47:11;;;;;;;16.92;7.07;;;;;;;7.55;91.02;102772.69;4973095;28;101521;-35
2021/12/14 03:49:45;;;;;;;12.13;6.03;;;;;;;7.52;91.22;102769.19;4973358;28;96745;-34
2021/12/14 03:52:14;;;;;;;17.02;7.82;;;;;;;7.55;91.05;102777.19;4973083;28;96674;-34
2021/12/14 03:54:39;;;;;;;10.00;5.25;;;;;;;7.57;91.03;102780.75;4973898;28;101118;-34
2021/12/14 03:57:06;;;;;;;11.40;5.55;;;;;;;7.56;91.37;102779.88;4973037;28;101113;-35
2021/12/14 03:59:32;;;;;;;12.20;6.07;;;;;;;7.57;90.93;102788.84;4972885;28;96697;-35
2021/12/14 04:02:01;;;;;;;13.00;5.57;;;;;;;7.53;90.84;102787.13;4973358;28;96918;-35
2021/12/14 04:04:36;;;;;;;8.85;4.47;;;;;;;7.57;91.03;102788.84;4972866;28;99021;-34
2021/12/14 04:07:05;;;;;;;19.27;5.57;;;;;;;7.55;91.22;102778.06;4973949;28;99242;-34
2021/12/14 04:09:34;;;;;;;12.07;6.50;;;;;;;7.48;90.94;102765.63;4972558;28;97027;-35
2021/12/14 04:12:00;;;;;;;11.63;5.90;;;;;;;7.47;91.13;102758.47;4972447;28;97345;-34
2021/12/14 04:14:30;;;;;;;7.78;4.40;;;;;;;7.48;91.03;102762.03;4974037;28;98906;-34
2021/12/14 04:16:58;;;;;;;8.88;4.53;;;;;;;7.46;91.05;102756.69;4974114;28;99343;-35
2021/12/14 04:19:27;;;;;;;10.20;4.80;;;;;;;7.47;90.77;102755.78;4971902;28;96773;-35
2021/12/14 04:22:00;;;;;;;13.13;5.97;;;;;;;7.48;90.91;102771.00;4972655;28;96799;-35
2021/12/14 04:24:30;;;;;;;9.02;4.80;;;;;;;7.47;90.92;102771.94;4972598;28;101072;-34
2021/12/14 04:26:58;;;;;;;10.10;5.45;;;;;;;7.50;90.79;102779.97;4972861;28;101068;-35
2021/12/14 04:29:23;;;;;;;7.93;4.60;;;;;;;7.49;91.00;102769.25;4972666;28;96516;-34
2021/12/14 04:31:50;;;;;;;18.65;6.90;;;;;;;7.47;90.73;102766.56;4973949;28;96735;-34
2021/12/14 04:34:17;;;;;;;14.40;5.53;;;;;;;7.47;90.93;102774.66;4972998;28;99414;-35
2021/12/14 04:36:47;;;;;;;11.60;4.90;;;;;;;7.42;90.82;102758.53;4972346;28;100977;-34
2021/12/14 04:53:11;;;;;;;13.00;5.93;;;;;;;7.42;90.72;102746.88;4974048;28;96636;-34
2021/12/14 04:55:43;;;;;;;12.70;4.25;;;;;;;7.38;90.76;102739.75;4973435;28;98192;-34
2021/12/14 04:58:09;;;;;;;8.23;4.20;;;;;;;7.31;90.84;102732.69;4971952;28;100859;-34
2021/12/14 05:00:46;;;;;;;14.68;6.32;;;;;;;7.36;90.61;102742.47;4973143;28;96476;-34
2021/12/14 05:03:34;;;;;;;5.85;3.40;;;;;;;7.38;90.52;102747.84;4972135;28;96785;-34
2021/12/14 05:06:17;;;;;;;10.05;5.07;;;;;;;7.36;90.79;102744.28;4971304;28;101026;-34
2021/12/14 05:11:18;;;;;;;9.25;4.53;;;;;;;7.34;90.54;102735.31;4971570;28;96516;-34
2021/12/14 05:13:53;;;;;;;16.95;5.78;;;;;;;7.38;90.63;102742.44;4971846;28;96701;-34
2021/12/14 05:16:22;;;;;;;10.25;5.50;;;;;;;7.33;90.50;102723.66;4971837;28;101296;-35
2021/12/14 05:18:52;;;;;;;8.73;4.95;;;;;;;7.37;90.58;102740.69;4971854;28;100832;-35
2021/12/14 05:21:25;;;;;;;13.20;5.13;;;;;;;7.36;90.72;102733.50;4971760;28;96671;-34
2021/12/14 05:23:50;;;;;;;10.02;5.20;;;;;;;7.32;90.62;102738.06;4973149;28;96726;-34
2021/12/14 05:26:16;;;;;;;8.65;5.05;;;;;;;7.35;90.61;102740.69;4972447;28;99449;-34
2021/12/14 05:28:46;;;;;;;12.95;6.00;;;;;;;7.40;90.49;102743.31;4973050;28;97792;-34
2021/12/14 05:31:12;;;;;;;13.55;4.88;;;;;;;7.40;90.72;102740.63;4971178;28;96564;-35
2021/12/14 05:33:38;;;;;;;7.35;4.45;;;;;;;7.39;90.63;102739.75;4972739;28;96794;-35
2021/12/14 05:36:09;;;;;;;12.73;5.63;;;;;;;7.37;90.73;102738.00;4972559;28;97509;-34
2021/12/14 05:38:48;;;;;;;9.18;4.32;;;;;;;7.36;90.74;102737.06;4971431;28;100744;-35
2021/12/14 05:44:02;;;;;;;10.25;5.47;;;;;;;7.37;90.40;102743.38;4973858;28;96434;-34
2021/12/14 05:46:28;;;;;;;11.32;5.95;;;;;;;7.29;90.63;102732.72;4971217;28;100866;-35
2021/12/14 05:49:06;;;;;;;9.75;5.00;;;;;;;7.35;90.47;102743.41;4971251;28;100991;-34
2021/12/14 05:51:32;;;;;;;11.98;4.75;;;;;;;7.35;90.67;102740.69;4970881;28;96672;-34
2021/12/14 05:53:58;;;;;;;10.27;4.72;;;;;;;7.30;90.61;102741.72;4972633;28;96872;-35
2021/12/14 05:56:27;;;;;;;7.82;3.47;;;;;;;7.33;90.49;102761.41;4971070;28;101116;-34
2021/12/14 05:58:54;;;;;;;10.38;5.55;;;;;;;7.34;90.65;102759.59;4971585;28;100460;-34
2021/12/14 06:01:25;;;;;;;13.18;4.82;;;;;;;7.33;90.40;102763.22;4971324;28;96692;-34
2021/12/14 06:03:53;;;;;;;9.25;4.68;;;;;;;7.37;90.41;102771.22;4972901;28;96563;-34
2021/12/14 06:06:23;;;;;;;12.85;5.78;;;;;;;7.35;90.50;102770.34;4972051;28;97743;-34
2021/12/14 06:08:49;;;;;;;11.93;5.55;;;;;;;7.40;90.40;102781.94;4970807;28;100842;-34
2021/12/14 06:11:21;;;;;;;14.20;5.93;;;;;;;7.35;90.50;102773.03;4972617;28;96885;-34
2021/12/14 06:13:47;;;;;;;13.73;5.35;;;;;;;7.36;90.58;102774.81;4970474;28;96784;-35
2021/12/14 06:16:25;;;;;;;16.52;5.38;;;;;;;7.39;90.28;102785.56;4971971;28;98328;-34
2021/12/14 06:18:51;;;;;;;15.85;6.13;;;;;;;7.38;90.53;102780.19;4972309;28;97337;-34
2021/12/14 06:21:45;;;;;;;12.60;5.60;;;;;;;7.33;90.50;102774.00;4970854;28;99251;-35
2021/12/14 06:24:11;;;;;;;12.18;6.25;;;;;;;7.36;90.52;102776.63;4972509;28;96916;-34
2021/12/14 06:26:41;;;;;;;15.75;6.10;;;;;;;7.35;90.64;102772.16;4970863;28;101350;-34
2021/12/14 06:29:09;;;;;;;10.90;5.03;;;;;;;7.39;90.42;102782.88;4970810;28;102042;-34
2021/12/14 06:31:35;;;;;;;17.15;6.10;;;;;;;7.40;90.35;102786.44;4972087;28;96480;-35
2021/12/14 06:34:11;;;;;;;12.73;4.53;;;;;;;7.36;90.61;102779.31;4971142;28;96852;-34
2021/12/14 06:37:14;;;;;;;9.70;4.43;;;;;;;7.37;90.42;102787.41;4970558;28;101078;-35
2021/12/14 06:40:16;;;;;;;18.23;4.80;;;;;;;7.39;90.51;102795.47;4970502;28;100722;-34
2021/12/14 06:42:52;;;;;;;16.67;6.18;;;;;;;7.39;90.46;102793.66;4972194;28;96570;-34
2021/12/14 06:45:28;;;;;;;14.27;6.40;;;;;;;7.35;90.60;102791.03;4975994;28;96475;-34
2021/12/14 06:48:04;;;;;;;12.63;5.82;;;;;;;7.36;90.58;102803.59;4974231;28;100420;-34
2021/12/14 06:50:39;;;;;;;15.98;6.43;;;;;;;7.36;90.59;102795.50;4975257;28;99153;-35
2021/12/14 06:53:09;;;;;;;12.07;5.93;;;;;;;7.31;90.80;102792.00;4974084;28;96606;-34
2021/12/14 06:55:36;;;;;;;21.20;7.13;;;;;;;7.29;90.69;102794.69;4973917;28;96927;-34
2021/12/14 06:58:09;;;;;;;13.23;6.63;;;;;;;7.36;90.77;102796.38;4973911;28;101441;-34
2021/12/14 07:00:35;;;;;;;13.95;6.43;;;;;;;7.32;90.63;102799.19;4974166;28;100965;-34
2021/12/14 07:03:01;;;;;;;10.32;5.78;;;;;;;7.31;90.47;102806.34;4975359;28;96759;-34
2021/12/14 07:05:28;;;;;;;10.63;5.20;;;;;;;7.29;90.57;102801.91;4974849;28;96783;-34
2021/12/14 07:07:54;;;;;;;11.80;5.55;;;;;;;7.36;90.58;102811.69;4973312;28;100929;-35
2021/12/14 07:10:21;;;;;;;19.38;6.63;;;;;;;7.35;90.83;102818.88;4975139;28;101300;-34
2021/12/14 07:12:52;;;;;;;10.38;5.88;;;;;;;7.42;90.54;102822.38;4973632;28;96626;-34
2021/12/14 07:15:23;;;;;;;11.95;5.53;;;;;;;7.41;90.64;102826.88;4975103;28;96801;-34
2021/12/14 07:18:03;;;;;;;16.73;6.55;;;;;;;7.38;90.70;102818.81;4973770;28;101002;-35
2021/12/14 07:20:42;;;;;;;12.02;6.10;;;;;;;7.34;90.68;102808.09;4974010;28;97798;-35
2021/12/14 07:23:20;;;;;;;16.00;7.53;;;;;;;7.38;90.52;102812.53;4975209;28;96591;-34
2021/12/14 07:25:55;;;;;;;17.13;7.32;;;;;;;7.31;90.69;102800.06;4975389;28;96694;-34
2021/12/14 07:28:21;;;;;;;17.30;6.22;;;;;;;7.37;90.47;102805.38;4973552;28;100865;-34
2021/12/14 07:30:55;;;;;;;14.63;6.80;;;;;;;7.35;90.83;102815.28;4973399;28;100824;-35
2021/12/14 07:33:24;;;;;;;15.75;7.22;;;;;;;7.32;90.84;102809.97;4974732;28;96554;-34
2021/12/14 07:36:11;;;;;;;12.07;6.30;;;;;;;7.30;90.70;102811.78;4973310;28;96798;-34
2021/12/14 07:38:44;;;;;;;15.23;6.45;;;;;;;7.37;90.84;102829.66;4973250;28;101119;-35
2021/12/14 07:41:15;;;;;;;15.38;6.22;;;;;;;7.30;90.75;102819.88;4973289;28;101416;-34
2021/12/14 07:43:47;;;;;;;30.07;7.20;;;;;;;7.37;90.92;102832.34;4973534;28;96765;-34
2021/12/14 07:46:30;;;;;;;14.88;7.10;;;;;;;7.26;90.93;102818.13;4973141;28;97370;-34
2021/12/14 07:49:05;;;;;;;18.23;8.82;;;;;;;7.34;90.91;102838.69;4973697;28;98005;-34
2021/12/14 07:51:33;;;;;;;17.20;7.10;;;;;;;7.34;90.81;102835.06;4973514;28;100812;-35
2021/12/14 07:54:03;;;;;;;15.48;6.57;;;;;;;7.39;90.78;102844.88;4972832;28;96525;-35
2021/12/14 07:56:42;;;;;;;17.83;7.72;;;;;;;7.36;90.84;102841.31;4973179;28;96757;-35
2021/12/14 07:59:27;;;;;;;22.08;6.45;;;;;;;7.39;91.07;102850.28;4972331;28;100771;-34
2021/12/14 08:02:18;;;;;;;15.20;5.93;;;;;;;7.42;90.90;102854.72;4974341;28;98782;-34
2021/12/14 08:04:55;;;;;;;17.17;6.97;;;;;;;7.45;91.02;102855.53;4975764;28;96510;-33
2021/12/14 08:07:32;;;;;;;12.52;5.78;;;;;;;7.43;91.04;102856.50;4974553;28;96695;-34
2021/12/14 08:10:07;;;;;;;16.60;7.00;;;;;;;7.41;90.92;102845.75;4974449;28;97950;-34
2021/12/14 08:13:12;;;;;;;22.48;7.03;;;;;;;7.50;90.84;102859.97;4972757;28;100669;-34
2021/12/14 08:15:57;;;;;;;16.17;6.78;;;;;;;7.51;90.96;102864.44;4974096;28;96499;-34
2021/12/14 08:18:27;;;;;;;15.00;6.18;;;;;;;7.43;91.06;102851.09;4973166;28;96728;-35
2021/12/14 08:20:59;;;;;;;15.45;7.13;;;;;;;7.53;91.14;102866.22;4972638;28;101592;-34
2021/12/14 08:23:29;;;;;;;17.55;7.97;;;;;;;7.51;91.13;102862.66;4972556;28;100813;-34
2021/12/14 08:26:14;;;;;;;20.55;5.85;;;;;;;7.55;91.10;102869.75;4972104;28;98590;-34
2021/12/14 08:29:02;;;;;;;13.27;6.68;;;;;;;7.57;91.10;102872.44;4974209;28;96425;-34
2021/12/14 08:31:50;;;;;;;15.30;6.35;;;;;;;7.53;91.51;102866.22;4973645;28;97954;-34
2021/12/14 08:34:23;;;;;;;11.90;5.00;;;;;;;7.52;91.36;102864.44;4973678;28;97778;-34
2021/12/14 08:36:59;;;;;;;11.23;5.65;;;;;;;7.58;91.26;102872.44;4972315;28;96634;-35
2021/12/14 08:39:28;;;;;;;22.90;6.57;;;;;;;7.61;91.10;102880.47;4972627;28;96682;-34
2021/12/14 08:42:09;;;;;;;13.75;6.75;;;;;;;7.63;91.14;102885.84;4972214;28;100899;-34
2021/12/14 08:44:38;;;;;;;20.80;7.47;;;;;;;7.63;91.44;102894.81;4972597;28;100838;-34
2021/12/14 08:47:10;;;;;;;19.08;6.95;;;;;;;7.53;91.53;102878.81;4973493;28;96620;-34
2021/12/14 08:49:36;;;;;;;14.05;6.15;;;;;;;7.59;91.46;102893.09;4972394;28;96594;-34
2021/12/14 08:52:04;;;;;;;20.40;6.72;;;;;;;7.62;91.45;102890.31;4971686;28;101333;-35
2021/12/14 08:54:32;;;;;;;14.35;6.57;;;;;;;7.57;91.41;102880.53;4971563;28;102704;-34
2021/12/14 08:57:13;;;;;;;22.08;8.27;;;;;;;7.64;91.63;102888.50;4972075;28;96636;-34
2021/12/14 08:59:43;;;;;;;16.90;6.90;;;;;;;7.59;91.34;102885.00;4972022;28;96870;-35
2021/12/14 09:02:14;;;;;;;16.90;6.90;;;;;;;7.60;91.64;102881.41;4972004;28;101417;-35
2021/12/14 09:04:54;;;;;;;20.02;7.40;;;;;;;7.61;91.76;102883.16;4973476;28;97920;-34
2021/12/14 09:07:24;;;;;;;20.02;7.95;;;;;;;7.59;91.74;102881.41;4972936;28;96612;-34
2021/12/14 09:09:52;;;;;;;16.35;5.57;;;;;;;7.59;91.97;102876.03;4972415;28;96765;-34
2021/12/14 09:12:33;;;;;;;18.95;7.65;;;;;;;7.63;91.83;102881.34;4971727;28;101410;-34
2021/12/14 09:15:08;;;;;;;17.02;7.82;;;;;;;7.59;92.06;102876.91;4973266;28;97929;-34
2021/12/14 09:17:34;;;;;;;14.45;5.57;;;;;;;7.58;92.11;102875.13;4973008;28;96724;-34
2021/12/14 09:20:06;;;;;;;19.25;6.82;;;;;;;7.66;92.01;102880.41;4972913;28;96792;-35
2021/12/14 09:22:35;;;;;;;16.27;6.55;;;;;;;7.65;91.83;102878.59;4972948;28;97325;-34
2021/12/14 09:25:03;;;;;;;15.52;7.05;;;;;;;7.65;91.91;102887.59;4971681;28;99298;-34
2021/12/14 09:27:32;;;;;;;16.33;7.30;;;;;;;7.63;91.93;102875.06;4971870;28;97702;-34
2021/12/14 09:29:58;;;;;;;15.80;6.63;;;;;;;7.60;92.22;102867.91;4971809;28;96874;-34
2021/12/14 09:32:28;;;;;;;20.27;7.95;;;;;;;7.63;92.12;102878.63;4971575;28;100685;-34
2021/12/14 09:34:58;;;;;;;16.95;7.15;;;;;;;7.68;92.11;102883.06;4972876;28;98968;-34
2021/12/14 09:37:26;;;;;;;23.10;9.35;;;;;;;7.65;91.83;102884.00;4971617;28;96558;-35
2021/12/14 09:39:58;;;;;;;18.25;7.82;;;;;;;7.69;91.84;102890.25;4971571;28;96820;-34
2021/12/14 09:42:28;;;;;;;16.60;7.18;;;;;;;7.72;92.08;102892.88;4970941;28;100504;-34
2021/12/14 09:44:58;;;;;;;16.45;8.10;;;;;;;7.70;92.07;102890.22;4971363;28;100748;-34
2021/12/14 09:47:29;;;;;;;15.43;6.50;;;;;;;7.79;91.76;102898.13;4971514;28;97457;-34
2021/12/14 09:49:56;;;;;;;27.63;7.57;;;;;;;7.78;91.90;102882.00;4972846;28;96600;-34
2021/12/14 09:52:29;;;;;;;18.67;7.13;;;;;;;7.79;91.91;102889.16;4971172;28;101294;-34
2021/12/14 09:54:56;;;;;;;16.65;8.90;;;;;;;7.76;91.93;102889.22;4971148;28;101245;-35
2021/12/14 09:57:45;;;;;;;19.25;7.07;;;;;;;7.78;91.98;102887.41;4971354;28;96622;-34
2021/12/14 10:00:16;;;;;;;15.85;6.40;;;;;;;7.81;91.92;102892.72;4973164;28;96656;-34
2021/12/14 10:02:43;;;;;;;16.33;7.53;;;;;;;7.83;91.80;102890.91;4971268;28;100914;-34
2021/12/14 10:05:26;;;;;;;19.92;7.68;;;;;;;7.83;91.86;102888.19;4970537;28;101372;-34
2021/12/14 10:07:54;;;;;;;17.73;6.78;;;;;;;7.83;91.93;102872.00;4970686;28;97155;-34
2021/12/14 10:10:20;;;;;;;16.10;7.22;;;;;;;7.87;91.81;102868.34;4971148;28;96956;-35
2021/12/14 10:12:51;;;;;;;18.85;8.00;;;;;;;7.93;91.56;102876.31;4971001;28;100704;-34
2021/12/14 10:15:29;;;;;;;20.05;6.82;;;;;;;7.91;91.91;102872.75;4970964;28;101126;-34
2021/12/14 10:17:58;;;;;;;25.58;7.70;;;;;;;7.99;91.99;102888.84;4969967;28;96791;-34
2021/12/14 10:20:33;;;;;;;13.98;6.75;;;;;;;7.99;91.64;102881.63;4971077;28;96728;-34
2021/12/14 10:23:00;;;;;;;24.70;7.28;;;;;;;7.99;91.60;102878.91;4970667;28;101270;-34
2021/12/14 10:25:26;;;;;;;23.08;7.72;;;;;;;8.04;91.70;102886.94;4971177;28;100513;-34
2021/12/14 10:27:53;;;;;;;16.25;6.57;;;;;;;8.04;91.61;102878.84;4971060;28;96578;-34
2021/12/14 10:30:33;;;;;;;18.25;7.18;;;;;;;8.09;91.80;102896.72;4970906;28;96710;-34
2021/12/14 10:33:00;;;;;;;27.75;9.25;;;;;;;8.11;91.71;102899.41;4970085;28;103185;-34
2021/12/14 10:35:35;;;;;;;21.13;7.07;;;;;;;8.06;91.87;102885.09;4970171;28;100925;-35
2021/12/14 10:38:18;;;;;;;16.30;6.68;;;;;;;8.12;91.84;102898.47;4970964;28;96719;-34
2021/12/14 10:43:34;;;;;;;26.17;8.75;;;;;;;8.08;91.82;102889.56;4971688;28;97799;-34
2021/12/14 10:46:15;;;;;;;14.93;5.90;;;;;;;8.12;91.82;102900.28;4971787;28;99116;-35
2021/12/14 10:48:45;;;;;;;28.00;9.60;;;;;;;8.09;91.96;102891.31;4972335;28;96601;-34
2021/12/14 10:51:13;;;;;;;18.08;8.10;;;;;;;8.09;91.97;102887.75;4971143;28;96981;-34
2021/12/14 10:53:42;;;;;;;20.35;9.45;;;;;;;8.16;92.21;102899.31;4970185;28;100804;-34
2021/12/14 10:56:22;;;;;;;23.55;7.88;;;;;;;8.14;91.97;102888.53;4971769;28;97849;-34
2021/12/14 10:58:51;;;;;;;21.67;7.68;;;;;;;8.12;91.93;102879.56;4970219;28;96957;-34
2021/12/14 11:01:26;;;;;;;18.40;6.45;;;;;;;8.16;91.94;102881.31;4970629;28;96799;-34
2021/12/14 11:03:56;;;;;;;20.92;7.35;;;;;;;8.14;91.63;102868.75;4970534;28;101151;-34
2021/12/14 11:06:28;;;;;;;19.15;8.88;;;;;;;8.22;91.96;102874.88;4969771;28;100735;-35
2021/12/14 11:09:39;;;;;;;18.38;8.63;;;;;;;8.24;92.19;102873.06;4970511;28;96553;-35
2021/12/14 11:12:03;;;;;;;22.38;7.15;;;;;;;8.27;91.92;102870.28;4971301;28;96831;-34
2021/12/14 11:14:34;;;;;;;33.53;7.88;;;;;;;8.26;92.09;102873.94;4971845;28;97531;-34
2021/12/14 11:19:57;;;;;;;21.88;7.07;;;;;;;8.27;92.47;102867.59;4991549;28;96567;-35
2021/12/14 11:22:25;;;;;;;23.67;7.60;;;;;;;8.34;92.63;102879.16;4990079;28;96801;-34
2021/12/14 11:25:04;;;;;;;13.60;6.53;;;;;;;8.32;92.53;102873.81;4991019;28;97572;-34
2021/12/14 11:27:38;;;;;;;16.85;7.22;;;;;;;8.34;92.79;102882.75;4990920;28;99343;-34
2021/12/14 11:30:24;;;;;;;16.52;6.35;;;;;;;8.34;92.69;102879.16;4992344;28;96844;-34
2021/12/14 11:33:07;;;;;;;19.42;6.72;;;;;;;8.29;92.68;102865.75;4993408;28;96798;-34
2021/12/14 11:35:37;;;;;;;19.40;8.70;;;;;;;8.26;92.58;102866.72;4993228;28;100860;-34
2021/12/14 11:38:10;;;;;;;21.88;9.10;;;;;;;8.32;93.04;102870.19;4993169;28;101998;-34
2021/12/14 11:40:36;;;;;;;23.13;7.68;;;;;;;8.29;93.00;102865.75;4993398;28;96564;-34
2021/12/14 11:43:17;;;;;;;25.27;8.45;;;;;;;8.30;93.32;102875.66;4993717;28;96929;-34
2021/12/14 11:45:46;;;;;;;19.30;7.32;;;;;;;8.28;93.10;102872.09;4986562;28;98507;-33
2021/12/14 11:48:11;;;;;;;16.48;7.32;;;;;;;8.23;93.09;102865.91;4974420;28;99243;-34
2021/12/14 11:50:43;;;;;;;17.35;7.43;;;;;;;8.28;93.32;102872.09;4974331;28;96456;-34
2021/12/14 11:53:17;;;;;;;;;;;;;;;8.30;93.29;102878.34;4973968;28;96792;-34
2021/12/14 11:55:42;;;;;;;12.50;5.45;;;;;;;8.30;93.37;102872.94;4972579;28;100784;-34
2021/12/14 11:58:28;;;;;;;15.85;6.50;;;;;;;8.32;93.27;102881.91;4974386;28;99394;-34
2021/12/14 12:01:10;;;;;;;16.30;7.43;;;;;;;8.24;93.50;102864.97;4972982;28;96663;-34
2021/12/14 12:03:42;;;;;;;17.02;5.90;;;;;;;8.32;93.50;102873.81;4974691;28;96586;-34
2021/12/14 12:06:14;;;;;;;18.37;6.47;;;;;;;8.30;93.57;102875.66;4972615;28;101062;-34
2021/12/14 12:11:38;;;;;;;22.98;7.05;;;;;;;8.34;93.43;102873.75;4974803;28;96578;-34
2021/12/14 12:14:17;;;;;;;23.50;8.18;;;;;;;8.27;93.35;102862.19;4972826;28;99095;-34
2021/12/14 12:16:42;;;;;;;17.17;6.40;;;;;;;8.34;93.78;102868.38;4972296;28;100840;-34
2021/12/14 12:19:36;;;;;;;13.27;5.60;;;;;;;8.34;93.54;102868.38;4973656;28;113569;-34
2021/12/14 12:22:15;;;;;;;16.80;8.35;;;;;;;8.35;93.26;102876.44;4973874;28;96532;-34
2021/12/14 12:24:45;;;;;;;23.70;6.85;;;;;;;8.38;93.81;102870.09;4972831;28;96623;-34